Time;durP1;ratioP1;P1;durP2;ratioP2;P2;SDS_P1;SDS_P2;PMS_P1;PMS_P2;Temp;Humidity;BMP_temperature;BMP_pressure;BME280_temperature;BME280_humidity;BME280_pressure;Samples;Min_cycle;Max_cycle;Signal;HPM_P1;HPM_P2
2022/06/24 00:00:41;;;;;;;0.20;0.20;;;;;;;;;;5072713;28;20040;-66
2022/06/24 00:03:18;;;;;;;1.23;0.40;;;;;;;;;;5082900;28;20051;-67
2022/06/24 00:05:47;;;;;;;0.90;0.30;;;;;;;;;;5082115;28;20089;-66
2022/06/24 00:08:14;;;;;;;0.40;0.30;;;;;;;;;;5082655;28;20044;-66
2022/06/24 00:10:40;;;;;;;0.32;0.25;;;;;;;;;;5081639;28;20902;-65
2022/06/24 00:13:07;;;;;;;1.65;0.20;;;;;;;;;;5081474;28;20052;-66
2022/06/24 00:15:35;;;;;;;0.75;0.30;;;;;;;;;;5083977;28;20040;-66
2022/06/24 00:18:15;;;;;;;1.52;0.30;;;;;;;;;;5084388;28;20036;-66
2022/06/24 00:20:49;;;;;;;0.47;0.22;;;;;;;;;;5083636;28;20056;-66
2022/06/24 00:23:16;;;;;;;0.60;0.30;;;;;;;;;;5083182;28;20078;-64
2022/06/24 00:25:43;;;;;;;2.00;0.38;;;;;;;;;;5082201;28;20059;-67
2022/06/24 00:28:11;;;;;;;0.88;0.30;;;;;;;;;;5083356;28;20044;-66
2022/06/24 00:30:41;;;;;;;0.40;0.20;;;;;;;;;;5085260;28;20047;-67
2022/06/24 00:33:15;;;;;;;0.63;0.30;;;;;;;;;;5087055;28;20040;-65
2022/06/24 00:36:09;;;;;;;0.30;0.30;;;;;;;;;;5088957;28;20046;-67
2022/06/24 00:38:36;;;;;;;3.00;0.50;;;;;;;;;;5083425;28;20105;-66
2022/06/24 00:41:07;;;;;;;0.28;0.28;;;;;;;;;;5087086;28;20036;-65
2022/06/24 00:43:39;;;;;;;0.30;0.30;;;;;;;;;;5088513;28;20039;-66
2022/06/24 00:46:09;;;;;;;0.60;0.22;;;;;;;;;;5091718;28;20199;-67
2022/06/24 00:48:40;;;;;;;1.25;0.25;;;;;;;;;;5087317;28;20578;-66
2022/06/24 00:51:07;;;;;;;0.38;0.30;;;;;;;;;;5087677;28;20385;-65
2022/06/24 00:53:44;;;;;;;0.25;0.20;;;;;;;;;;5087966;28;20058;-66
2022/06/24 00:56:12;;;;;;;0.80;0.30;;;;;;;;;;5103727;27;20044;-66
2022/06/24 00:58:39;;;;;;;0.35;0.25;;;;;;;;;;5087710;28;20043;-66
2022/06/24 01:01:06;;;;;;;0.22;0.20;;;;;;;;;;5089018;28;20123;-65
2022/06/24 01:03:40;;;;;;;0.45;0.30;;;;;;;;;;5087061;28;20084;-66
2022/06/24 01:06:08;;;;;;;0.75;0.30;;;;;;;;;;5086758;28;20672;-66
2022/06/24 01:08:35;;;;;;;0.45;0.30;;;;;;;;;;5086054;28;20554;-66
2022/06/24 01:11:02;;;;;;;1.10;0.40;;;;;;;;;;5088131;28;20040;-66
2022/06/24 01:13:29;;;;;;;0.85;0.30;;;;;;;;;;5071070;28;20051;-67
2022/06/24 01:15:56;;;;;;;1.20;0.30;;;;;;;;;;5089825;28;20115;-66
2022/06/24 01:18:23;;;;;;;0.60;0.25;;;;;;;;;;5084702;28;20519;-66
2022/06/24 01:20:50;;;;;;;0.25;0.22;;;;;;;;;;5085713;28;20069;-66
2022/06/24 01:23:24;;;;;;;0.25;0.20;;;;;;;;;;5085437;28;20051;-65
2022/06/24 01:25:50;;;;;;;0.40;0.30;;;;;;;;;;5085801;28;20527;-67
2022/06/24 01:28:17;;;;;;;0.75;0.30;;;;;;;;;;5087581;28;20419;-66
2022/06/24 01:30:44;;;;;;;0.30;0.30;;;;;;;;;;5083009;28;20771;-66
2022/06/24 01:33:10;;;;;;;0.25;0.20;;;;;;;;;;5084814;28;20028;-66
2022/06/24 01:35:37;;;;;;;0.80;0.30;;;;;;;;;;5084019;28;20069;-69
2022/06/24 01:38:04;;;;;;;1.35;0.30;;;;;;;;;;5087387;28;20031;-66
2022/06/24 01:40:30;;;;;;;0.40;0.30;;;;;;;;;;5085809;28;20509;-69
2022/06/24 01:42:57;;;;;;;0.63;0.30;;;;;;;;;;5089674;28;20036;-66
2022/06/24 01:45:24;;;;;;;0.20;0.20;;;;;;;;;;5086308;28;20047;-68
2022/06/24 01:47:50;;;;;;;0.20;0.20;;;;;;;;;;5087426;28;20032;-68
2022/06/24 01:50:19;;;;;;;0.43;0.30;;;;;;;;;;5087535;28;20044;-67
2022/06/24 01:52:46;;;;;;;0.47;0.30;;;;;;;;;;5087333;28;20054;-67
2022/06/24 01:55:13;;;;;;;0.25;0.25;;;;;;;;;;5088739;28;20052;-67
2022/06/24 01:57:39;;;;;;;0.47;0.30;;;;;;;;;;5087666;28;20535;-67
2022/06/24 02:00:06;;;;;;;0.20;0.20;;;;;;;;;;5102419;27;20078;-68
2022/06/24 02:02:33;;;;;;;0.30;0.30;;;;;;;;;;5085026;28;20047;-67
2022/06/24 02:05:00;;;;;;;1.33;0.38;;;;;;;;;;5085185;28;20051;-67
2022/06/24 02:07:27;;;;;;;0.30;0.30;;;;;;;;;;5083708;28;20028;-66
2022/06/24 02:15:23;;;;;;;0.65;0.30;;;;;;;;;;5085235;28;20717;-69
2022/06/24 02:17:50;;;;;;;0.50;0.22;;;;;;;;;;5084873;28;20361;-67
2022/06/24 02:20:17;;;;;;;0.30;0.30;;;;;;;;;;5065141;28;20453;-68
2022/06/24 02:22:43;;;;;;;2.63;0.30;;;;;;;;;;5091149;27;20910;-69
2022/06/24 02:25:11;;;;;;;2.20;0.30;;;;;;;;;;5084220;28;20121;-68
2022/06/24 02:27:38;;;;;;;0.30;0.30;;;;;;;;;;5093041;27;20082;-67
2022/06/24 02:30:05;;;;;;;0.20;0.20;;;;;;;;;;5097036;27;20082;-68
2022/06/24 02:32:32;;;;;;;0.20;0.20;;;;;;;;;;5103445;27;21690;-68
2022/06/24 02:34:58;;;;;;;1.35;0.30;;;;;;;;;;5104027;27;20055;-67
2022/06/24 02:37:25;;;;;;;0.60;0.30;;;;;;;;;;5084450;27;20516;-67
2022/06/24 02:39:52;;;;;;;0.30;0.30;;;;;;;;;;5104441;27;20042;-66
2022/06/24 02:42:18;;;;;;;0.22;0.22;;;;;;;;;;5105359;27;20521;-67
2022/06/24 02:44:45;;;;;;;0.40;0.30;;;;;;;;;;5080628;27;20062;-66
2022/06/24 02:47:12;;;;;;;0.38;0.25;;;;;;;;;;5105269;27;20111;-66
2022/06/24 02:49:38;;;;;;;0.30;0.30;;;;;;;;;;5105511;27;20106;-69
2022/06/24 02:52:08;;;;;;;0.30;0.30;;;;;;;;;;5085514;27;20031;-65
2022/06/24 02:54:34;;;;;;;0.75;0.30;;;;;;;;;;5084536;27;20104;-66
2022/06/24 02:57:01;;;;;;;0.32;0.30;;;;;;;;;;5105539;27;20109;-69
2022/06/24 02:59:27;;;;;;;0.28;0.20;;;;;;;;;;5105016;27;20601;-68
2022/06/24 03:01:54;;;;;;;0.98;0.30;;;;;;;;;;5105425;27;20048;-67
2022/06/24 03:04:21;;;;;;;0.38;0.30;;;;;;;;;;5104138;27;20036;-67
2022/06/24 03:06:47;;;;;;;0.57;0.30;;;;;;;;;;5083288;27;20073;-67
2022/06/24 03:09:14;;;;;;;0.30;0.30;;;;;;;;;;5107489;27;20441;-65
2022/06/24 03:11:41;;;;;;;4.93;0.70;;;;;;;;;;5105534;27;20066;-65
2022/06/24 03:14:08;;;;;;;1.08;0.35;;;;;;;;;;5104931;27;20403;-67
2022/06/24 03:16:34;;;;;;;0.43;0.30;;;;;;;;;;5105280;27;20031;-68
2022/06/24 03:19:01;;;;;;;1.10;0.20;;;;;;;;;;5106564;27;20492;-67
2022/06/24 03:21:27;;;;;;;0.30;0.30;;;;;;;;;;5081697;27;20032;-68
2022/06/24 03:23:54;;;;;;;0.47;0.28;;;;;;;;;;5106805;27;20122;-67
2022/06/24 03:26:21;;;;;;;0.43;0.30;;;;;;;;;;5105021;27;20100;-68
2022/06/24 03:28:47;;;;;;;0.20;0.20;;;;;;;;;;5098744;27;20050;-68
2022/06/24 03:31:14;;;;;;;0.20;0.20;;;;;;;;;;5105153;27;20395;-65
2022/06/24 03:33:41;;;;;;;1.13;0.35;;;;;;;;;;5103325;27;20050;-67
2022/06/24 03:36:11;;;;;;;0.20;0.20;;;;;;;;;;5102463;27;20039;-67
2022/06/24 03:38:37;;;;;;;0.55;0.20;;;;;;;;;;5102560;27;20040;-67
2022/06/24 03:41:04;;;;;;;0.73;0.30;;;;;;;;;;5104416;27;20035;-67
2022/06/24 03:43:31;;;;;;;0.73;0.30;;;;;;;;;;5102561;27;20035;-67
2022/06/24 03:46:01;;;;;;;0.30;0.28;;;;;;;;;;5106885;27;20045;-67
2022/06/24 03:48:28;;;;;;;0.75;0.30;;;;;;;;;;5104589;27;20054;-68
2022/06/24 03:50:55;;;;;;;0.52;0.30;;;;;;;;;;5103472;27;20043;-68
2022/06/24 03:53:22;;;;;;;1.10;0.30;;;;;;;;;;5104568;27;20035;-69
2022/06/24 03:55:52;;;;;;;0.20;0.20;;;;;;;;;;5106533;27;20035;-67
2022/06/24 03:58:19;;;;;;;0.57;0.32;;;;;;;;;;5105996;27;20116;-67
2022/06/24 04:00:46;;;;;;;0.50;0.30;;;;;;;;;;5105880;27;20545;-66
2022/06/24 04:03:13;;;;;;;0.35;0.30;;;;;;;;;;5107885;27;20035;-66
2022/06/24 04:05:40;;;;;;;1.60;0.40;;;;;;;;;;5107430;27;20047;-66
2022/06/24 04:08:07;;;;;;;0.20;0.20;;;;;;;;;;5084810;28;20073;-66
2022/06/24 04:10:34;;;;;;;0.45;0.30;;;;;;;;;;5102493;27;20126;-67
2022/06/24 04:13:00;;;;;;;3.05;0.30;;;;;;;;;;5104567;28;20139;-66
2022/06/24 04:15:27;;;;;;;0.32;0.30;;;;;;;;;;5103342;28;20116;-66
2022/06/24 04:17:55;;;;;;;1.02;0.30;;;;;;;;;;5104580;28;20114;-68
2022/06/24 04:20:21;;;;;;;1.83;0.30;;;;;;;;;;5100845;28;20050;-68
2022/06/24 04:22:48;;;;;;;2.30;0.40;;;;;;;;;;5093432;28;20089;-67
2022/06/24 04:25:15;;;;;;;0.43;0.30;;;;;;;;;;5103138;28;20531;-67
2022/06/24 04:27:42;;;;;;;0.30;0.30;;;;;;;;;;5102399;28;20456;-67
2022/06/24 04:30:09;;;;;;;0.20;0.20;;;;;;;;;;5102728;28;20050;-67
2022/06/24 04:32:36;;;;;;;0.45;0.30;;;;;;;;;;5102460;28;20040;-67
2022/06/24 04:35:04;;;;;;;3.70;0.40;;;;;;;;;;5104713;28;20051;-66
2022/06/24 04:37:30;;;;;;;0.80;0.38;;;;;;;;;;5104966;28;20578;-64
2022/06/24 04:39:58;;;;;;;0.30;0.30;;;;;;;;;;5103329;27;20035;-66
2022/06/24 04:42:24;;;;;;;1.60;0.30;;;;;;;;;;5103585;28;20040;-68
2022/06/24 04:44:52;;;;;;;0.30;0.30;;;;;;;;;;5103057;28;20082;-64
2022/06/24 04:47:19;;;;;;;0.43;0.30;;;;;;;;;;5103551;28;20132;-66
2022/06/24 04:49:45;;;;;;;2.58;0.40;;;;;;;;;;5100787;28;20032;-67
2022/06/24 04:52:12;;;;;;;0.20;0.20;;;;;;;;;;5076486;28;20153;-65
2022/06/24 04:54:39;;;;;;;1.02;0.30;;;;;;;;;;5102549;27;20047;-66
2022/06/24 04:57:06;;;;;;;0.45;0.30;;;;;;;;;;5103793;28;20064;-66
2022/06/24 04:59:32;;;;;;;0.22;0.22;;;;;;;;;;5102271;28;20126;-66
2022/06/24 05:01:59;;;;;;;0.70;0.30;;;;;;;;;;5103143;28;20077;-66
2022/06/24 05:04:26;;;;;;;1.23;0.50;;;;;;;;;;5101849;28;20043;-66
2022/06/24 05:06:52;;;;;;;1.73;0.43;;;;;;;;;;5081707;28;20081;-66
2022/06/24 05:09:19;;;;;;;0.65;0.40;;;;;;;;;;5103330;28;20099;-67
2022/06/24 05:11:48;;;;;;;0.45;0.30;;;;;;;;;;5103326;28;20039;-67
2022/06/24 05:14:15;;;;;;;0.85;0.32;;;;;;;;;;5105357;27;20283;-66
2022/06/24 05:16:42;;;;;;;0.32;0.30;;;;;;;;;;5106638;27;20108;-67
2022/06/24 05:19:09;;;;;;;0.28;0.28;;;;;;;;;;5104858;27;20556;-66
2022/06/24 05:21:36;;;;;;;0.28;0.20;;;;;;;;;;5106489;27;20042;-67
2022/06/24 05:24:03;;;;;;;0.43;0.30;;;;;;;;;;5106530;27;20035;-66
2022/06/24 05:26:30;;;;;;;0.30;0.30;;;;;;;;;;5105333;27;20074;-67
2022/06/24 05:28:56;;;;;;;0.30;0.30;;;;;;;;;;5106054;27;20051;-67
2022/06/24 05:31:23;;;;;;;0.45;0.30;;;;;;;;;;5106036;27;20047;-67
2022/06/24 05:33:50;;;;;;;0.30;0.30;;;;;;;;;;5107211;27;20055;-66
2022/06/24 05:36:16;;;;;;;0.45;0.35;;;;;;;;;;5101304;27;20047;-67
2022/06/24 05:38:46;;;;;;;1.08;0.45;;;;;;;;;;5103773;27;20502;-67
2022/06/24 05:41:13;;;;;;;0.88;0.40;;;;;;;;;;5105475;27;20032;-67
2022/06/24 05:43:40;;;;;;;0.35;0.30;;;;;;;;;;5106524;27;20067;-67
2022/06/24 05:46:06;;;;;;;0.22;0.20;;;;;;;;;;5105364;27;20036;-67
2022/06/24 05:48:33;;;;;;;0.30;0.30;;;;;;;;;;5105808;27;20571;-67
2022/06/24 05:51:00;;;;;;;0.45;0.30;;;;;;;;;;5107122;27;20050;-67
2022/06/24 05:56:12;;;;;;;0.30;0.30;;;;;;;;;;5106747;27;20821;-67
2022/06/24 05:58:39;;;;;;;1.67;0.38;;;;;;;;;;5105746;27;20525;-67
2022/06/24 06:01:12;;;;;;;0.30;0.30;;;;;;;;;;5105768;27;20039;-67
2022/06/24 06:03:39;;;;;;;0.30;0.30;;;;;;;;;;5104449;27;20220;-67
2022/06/24 06:06:06;;;;;;;0.30;0.30;;;;;;;;;;5103467;27;20081;-67
2022/06/24 06:08:34;;;;;;;0.80;0.30;;;;;;;;;;5105978;27;20043;-67
2022/06/24 06:11:01;;;;;;;0.30;0.30;;;;;;;;;;5106980;27;20042;-67
2022/06/24 06:13:28;;;;;;;1.05;0.40;;;;;;;;;;5105880;27;20586;-67
2022/06/24 06:15:55;;;;;;;0.30;0.30;;;;;;;;;;5107144;27;20055;-65
2022/06/24 06:18:21;;;;;;;0.65;0.40;;;;;;;;;;5106327;27;20047;-65
2022/06/24 06:20:48;;;;;;;0.30;0.30;;;;;;;;;;5106429;27;20035;-65
2022/06/24 06:23:15;;;;;;;0.30;0.30;;;;;;;;;;5106772;27;20070;-65
2022/06/24 06:25:41;;;;;;;0.82;0.30;;;;;;;;;;5104526;27;20556;-66
2022/06/24 06:28:08;;;;;;;0.25;0.25;;;;;;;;;;5105100;27;20135;-66
2022/06/24 06:30:34;;;;;;;0.30;0.30;;;;;;;;;;5104950;27;20067;-66
2022/06/24 06:33:01;;;;;;;0.30;0.30;;;;;;;;;;5107661;27;20554;-65
2022/06/24 06:35:28;;;;;;;0.30;0.30;;;;;;;;;;5104903;27;21819;-66
2022/06/24 06:37:54;;;;;;;0.50;0.40;;;;;;;;;;5107986;27;20062;-66
2022/06/24 06:40:22;;;;;;;0.30;0.30;;;;;;;;;;5106507;27;20067;-65
2022/06/24 06:42:52;;;;;;;0.38;0.30;;;;;;;;;;5109445;27;20035;-66
2022/06/24 06:45:19;;;;;;;0.30;0.30;;;;;;;;;;5107017;27;20099;-66
2022/06/24 06:47:46;;;;;;;0.20;0.20;;;;;;;;;;5104340;27;20115;-66
2022/06/24 06:50:13;;;;;;;2.00;0.30;;;;;;;;;;5103434;27;20883;-66
2022/06/24 06:52:40;;;;;;;0.20;0.20;;;;;;;;;;5103930;27;20083;-66
2022/06/24 06:55:07;;;;;;;0.20;0.20;;;;;;;;;;5107440;27;20709;-65
2022/06/24 06:57:33;;;;;;;0.28;0.20;;;;;;;;;;5106291;27;20126;-65
2022/06/24 07:00:00;;;;;;;0.30;0.30;;;;;;;;;;5107070;27;20452;-66
2022/06/24 07:02:27;;;;;;;0.28;0.28;;;;;;;;;;5106241;27;20062;-66
2022/06/24 07:04:53;;;;;;;0.30;0.20;;;;;;;;;;5107758;27;20039;-66
2022/06/24 07:07:20;;;;;;;0.30;0.30;;;;;;;;;;5106014;27;20515;-66
2022/06/24 07:09:47;;;;;;;0.20;0.20;;;;;;;;;;5105354;27;20031;-65
2022/06/24 07:12:13;;;;;;;0.52;0.30;;;;;;;;;;5106454;27;20039;-65
2022/06/24 07:14:41;;;;;;;0.40;0.30;;;;;;;;;;5107411;27;20075;-65
2022/06/24 07:17:08;;;;;;;0.30;0.30;;;;;;;;;;5087155;28;20032;-66
2022/06/24 07:19:34;;;;;;;0.30;0.30;;;;;;;;;;5104783;27;20126;-66
2022/06/24 07:22:01;;;;;;;0.22;0.22;;;;;;;;;;5105937;27;20040;-67
2022/06/24 07:24:28;;;;;;;0.20;0.20;;;;;;;;;;5083425;27;20032;-66
2022/06/24 07:26:54;;;;;;;1.95;0.30;;;;;;;;;;5103661;27;20470;-66
2022/06/24 07:29:21;;;;;;;0.47;0.30;;;;;;;;;;5102513;27;20051;-68
2022/06/24 07:31:48;;;;;;;0.45;0.30;;;;;;;;;;5105087;27;20048;-66
2022/06/24 07:34:18;;;;;;;0.20;0.20;;;;;;;;;;5103276;27;20047;-67
2022/06/24 07:36:44;;;;;;;0.20;0.20;;;;;;;;;;5102876;27;20039;-67
2022/06/24 07:39:11;;;;;;;0.25;0.25;;;;;;;;;;5101656;27;20055;-67
2022/06/24 07:41:37;;;;;;;0.47;0.22;;;;;;;;;;5104481;27;20716;-66
2022/06/24 07:44:04;;;;;;;0.20;0.20;;;;;;;;;;5103293;27;20047;-66
2022/06/24 07:46:31;;;;;;;0.32;0.30;;;;;;;;;;5103607;27;20412;-67
2022/06/24 07:48:58;;;;;;;0.30;0.30;;;;;;;;;;5080095;28;20043;-66
2022/06/24 07:51:24;;;;;;;0.32;0.30;;;;;;;;;;5101938;27;20035;-66
2022/06/24 07:53:51;;;;;;;0.30;0.30;;;;;;;;;;5104192;27;20075;-66
2022/06/24 07:59:03;;;;;;;0.30;0.30;;;;;;;;;;5101710;27;20125;-66
2022/06/24 08:01:30;;;;;;;0.30;0.30;;;;;;;;;;5083278;28;20035;-66
2022/06/24 08:03:57;;;;;;;0.40;0.30;;;;;;;;;;5106265;27;20159;-66
2022/06/24 08:06:23;;;;;;;0.20;0.20;;;;;;;;;;5106001;27;20104;-66
2022/06/24 08:08:50;;;;;;;0.40;0.30;;;;;;;;;;5106655;27;20044;-67
2022/06/24 08:11:17;;;;;;;0.28;0.25;;;;;;;;;;5107081;28;20333;-65
2022/06/24 08:13:43;;;;;;;0.30;0.30;;;;;;;;;;5105065;27;20079;-67
2022/06/24 08:16:10;;;;;;;0.28;0.28;;;;;;;;;;5107896;28;20077;-66
2022/06/24 08:18:37;;;;;;;0.25;0.20;;;;;;;;;;5101787;28;20132;-67
2022/06/24 08:21:03;;;;;;;0.20;0.20;;;;;;;;;;5104689;28;20039;-66
2022/06/24 08:23:30;;;;;;;0.73;0.40;;;;;;;;;;5102509;28;20114;-66
2022/06/24 08:25:57;;;;;;;0.30;0.30;;;;;;;;;;5104827;28;20130;-66
2022/06/24 08:28:23;;;;;;;0.32;0.30;;;;;;;;;;5102917;28;20047;-66
2022/06/24 08:30:50;;;;;;;0.30;0.30;;;;;;;;;;5104064;28;20051;-66
2022/06/24 08:33:17;;;;;;;0.30;0.30;;;;;;;;;;5083391;28;20039;-65
2022/06/24 08:35:43;;;;;;;0.65;0.30;;;;;;;;;;5102380;28;20043;-65
2022/06/24 08:38:11;;;;;;;0.20;0.20;;;;;;;;;;5103558;28;20044;-65
2022/06/24 08:40:38;;;;;;;0.77;0.35;;;;;;;;;;5104257;27;20039;-65
2022/06/24 08:43:05;;;;;;;0.30;0.30;;;;;;;;;;5102433;28;20043;-65
2022/06/24 08:45:31;;;;;;;0.20;0.20;;;;;;;;;;5102950;28;20040;-65
2022/06/24 08:47:58;;;;;;;0.20;0.20;;;;;;;;;;5104198;27;20070;-65
2022/06/24 08:50:25;;;;;;;0.20;0.20;;;;;;;;;;5107040;27;20130;-66
2022/06/24 08:52:54;;;;;;;0.85;0.30;;;;;;;;;;5109156;27;20753;-66
2022/06/24 08:55:21;;;;;;;0.30;0.25;;;;;;;;;;5108435;27;20457;-65
2022/06/24 08:57:48;;;;;;;0.30;0.30;;;;;;;;;;5108204;27;20031;-66
2022/06/24 09:00:15;;;;;;;0.30;0.30;;;;;;;;;;5111013;27;20119;-67
2022/06/24 09:02:42;;;;;;;0.30;0.30;;;;;;;;;;5109037;27;20059;-66
2022/06/24 09:05:12;;;;;;;0.20;0.20;;;;;;;;;;5108584;27;20043;-66
2022/06/24 09:07:39;;;;;;;0.45;0.30;;;;;;;;;;5086893;27;20051;-66
2022/06/24 09:10:12;;;;;;;0.47;0.30;;;;;;;;;;5107371;27;20077;-67
2022/06/24 09:12:40;;;;;;;0.20;0.20;;;;;;;;;;5106543;27;20036;-66
2022/06/24 09:15:08;;;;;;;0.47;0.30;;;;;;;;;;5087338;27;20062;-66
2022/06/24 09:17:35;;;;;;;0.30;0.30;;;;;;;;;;5105466;27;20035;-66
2022/06/24 09:20:15;;;;;;;1.10;0.30;;;;;;;;;;5106322;27;20035;-66
2022/06/24 09:22:42;;;;;;;0.55;0.30;;;;;;;;;;5106016;27;20126;-66
2022/06/24 09:25:09;;;;;;;0.30;0.30;;;;;;;;;;5107458;27;20074;-66
2022/06/24 09:27:36;;;;;;;0.30;0.30;;;;;;;;;;5107435;27;20156;-66
2022/06/24 09:30:03;;;;;;;0.20;0.20;;;;;;;;;;5108185;27;20047;-66
2022/06/24 09:32:30;;;;;;;3.25;0.30;;;;;;;;;;5106784;27;20587;-66
2022/06/24 09:35:01;;;;;;;0.45;0.30;;;;;;;;;;5086813;27;20138;-66
2022/06/24 09:37:41;;;;;;;0.85;0.30;;;;;;;;;;5107640;27;20050;-66
2022/06/24 09:40:26;;;;;;;0.70;0.30;;;;;;;;;;5105068;27;20040;-67
2022/06/24 09:43:04;;;;;;;0.32;0.30;;;;;;;;;;5106806;27;20075;-67
2022/06/24 09:45:44;;;;;;;0.95;0.30;;;;;;;;;;5108690;27;20035;-67
2022/06/24 09:48:30;;;;;;;0.52;0.30;;;;;;;;;;5088981;27;20039;-67
2022/06/24 09:51:01;;;;;;;1.17;0.40;;;;;;;;;;5108218;27;20035;-67
2022/06/24 09:53:29;;;;;;;0.20;0.20;;;;;;;;;;5109345;27;20078;-67
2022/06/24 09:55:56;;;;;;;0.22;0.22;;;;;;;;;;5109191;27;20054;-67
2022/06/24 09:58:24;;;;;;;0.30;0.30;;;;;;;;;;5089590;28;20039;-67
2022/06/24 10:00:50;;;;;;;0.30;0.30;;;;;;;;;;5109422;27;20035;-66
2022/06/24 10:03:17;;;;;;;0.20;0.20;;;;;;;;;;5111533;27;20047;-67
2022/06/24 10:05:49;;;;;;;0.20;0.20;;;;;;;;;;5072409;28;20792;-67
2022/06/24 10:08:17;;;;;;;0.30;0.30;;;;;;;;;;5074813;28;20164;-67
2022/06/24 10:10:49;;;;;;;0.47;0.30;;;;;;;;;;5103681;27;20044;-67
2022/06/24 10:13:28;;;;;;;0.35;0.30;;;;;;;;;;5086177;28;20498;-66
2022/06/24 10:15:58;;;;;;;0.60;0.30;;;;;;;;;;5087690;28;20487;-65
2022/06/24 10:18:28;;;;;;;0.63;0.40;;;;;;;;;;5086498;28;20032;-66
2022/06/24 10:20:58;;;;;;;0.30;0.30;;;;;;;;;;5088406;28;20131;-66
2022/06/24 10:23:46;;;;;;;0.30;0.30;;;;;;;;;;5087795;28;20134;-65
2022/06/24 10:26:32;;;;;;;0.65;0.30;;;;;;;;;;5088023;28;20501;-67
2022/06/24 10:29:05;;;;;;;0.60;0.30;;;;;;;;;;5099434;27;20099;-66
2022/06/24 10:31:44;;;;;;;2.40;0.30;;;;;;;;;;5098560;27;20040;-66
2022/06/24 10:34:29;;;;;;;0.35;0.30;;;;;;;;;;5109893;27;20051;-66
2022/06/24 10:37:00;;;;;;;0.55;0.30;;;;;;;;;;5108552;27;20500;-66
2022/06/24 10:39:29;;;;;;;0.32;0.30;;;;;;;;;;5106188;27;20124;-66
2022/06/24 10:42:06;;;;;;;0.32;0.30;;;;;;;;;;5087155;27;20040;-66
2022/06/24 10:44:34;;;;;;;0.25;0.25;;;;;;;;;;5105529;27;20589;-66
2022/06/24 10:47:03;;;;;;;0.52;0.30;;;;;;;;;;5107306;27;20042;-66
2022/06/24 10:49:50;;;;;;;1.50;0.30;;;;;;;;;;5103854;27;20040;-65
2022/06/24 10:52:33;;;;;;;0.63;0.30;;;;;;;;;;5104788;27;20047;-65
2022/06/24 10:55:18;;;;;;;1.75;0.32;;;;;;;;;;5084076;27;20120;-65
2022/06/24 10:57:45;;;;;;;0.43;0.30;;;;;;;;;;5105708;27;20043;-66
2022/06/24 11:00:13;;;;;;;0.85;0.35;;;;;;;;;;5107673;27;20640;-66
2022/06/24 11:02:39;;;;;;;1.20;0.43;;;;;;;;;;5108399;27;20034;-66
2022/06/24 11:05:10;;;;;;;3.00;0.40;;;;;;;;;;5105884;27;20040;-67
2022/06/24 11:07:44;;;;;;;1.08;0.30;;;;;;;;;;5109385;27;20477;-66
2022/06/24 11:10:20;;;;;;;1.33;0.50;;;;;;;;;;5107645;27;20032;-66
2022/06/24 11:12:58;;;;;;;1.48;0.45;;;;;;;;;;5105008;27;20055;-66
2022/06/24 11:15:39;;;;;;;1.55;0.50;;;;;;;;;;5106545;27;20102;-66
2022/06/24 11:18:13;;;;;;;1.77;0.60;;;;;;;;;;5106803;27;20062;-65
2022/06/24 11:20:41;;;;;;;2.40;0.80;;;;;;;;;;5102989;27;20039;-66
2022/06/24 11:23:18;;;;;;;1.88;0.77;;;;;;;;;;5103545;27;21705;-66
2022/06/24 11:25:51;;;;;;;2.92;1.13;;;;;;;;;;5106291;27;20043;-66
2022/06/24 11:28:25;;;;;;;3.10;1.35;;;;;;;;;;5105840;27;20040;-66
2022/06/24 11:30:53;;;;;;;3.45;1.35;;;;;;;;;;5103733;27;20477;-66
2022/06/24 11:33:20;;;;;;;4.93;1.40;;;;;;;;;;5102920;27;20039;-66
2022/06/24 11:35:47;;;;;;;3.80;1.48;;;;;;;;;;5103838;27;20077;-66
2022/06/24 11:38:15;;;;;;;4.35;2.00;;;;;;;;;;5103700;27;20032;-65
2022/06/24 11:40:42;;;;;;;4.57;2.17;;;;;;;;;;5102561;27;20040;-65
2022/06/24 11:43:11;;;;;;;3.83;1.80;;;;;;;;;;5103580;27;20035;-65
2022/06/24 11:45:41;;;;;;;4.10;2.20;;;;;;;;;;5103383;27;20828;-65
2022/06/24 11:48:10;;;;;;;4.38;2.35;;;;;;;;;;5103516;27;20135;-66
2022/06/24 11:50:37;;;;;;;5.85;3.00;;;;;;;;;;5102767;27;20028;-66
2022/06/24 11:53:04;;;;;;;5.40;2.80;;;;;;;;;;5102151;27;20040;-66
2022/06/24 11:55:34;;;;;;;5.00;2.42;;;;;;;;;;5103722;27;20048;-65
2022/06/24 11:58:02;;;;;;;4.47;2.42;;;;;;;;;;5106082;27;20076;-65
2022/06/24 12:00:38;;;;;;;5.82;2.75;;;;;;;;;;5102679;27;20071;-66
2022/06/24 12:03:07;;;;;;;5.05;2.78;;;;;;;;;;5102786;27;20039;-66
2022/06/24 12:05:34;;;;;;;5.35;3.10;;;;;;;;;;5103011;27;20031;-67
2022/06/24 12:08:01;;;;;;;7.55;2.63;;;;;;;;;;5102290;27;20028;-67
2022/06/24 12:10:28;;;;;;;8.10;2.70;;;;;;;;;;5103381;27;20108;-66
2022/06/24 12:12:59;;;;;;;5.35;2.95;;;;;;;;;;5103634;27;20043;-65
2022/06/24 12:15:29;;;;;;;5.35;3.08;;;;;;;;;;5103024;27;20062;-66
2022/06/24 12:17:59;;;;;;;6.20;2.70;;;;;;;;;;5104731;28;20043;-66
2022/06/24 12:20:27;;;;;;;6.13;3.22;;;;;;;;;;5102645;28;20153;-68
2022/06/24 12:23:12;;;;;;;7.68;3.05;;;;;;;;;;5102320;27;20027;-68
2022/06/24 12:25:43;;;;;;;4.95;2.65;;;;;;;;;;5106904;27;20074;-66
2022/06/24 12:28:20;;;;;;;6.07;2.80;;;;;;;;;;5105992;27;20043;-66
2022/06/24 12:31:07;;;;;;;7.30;3.17;;;;;;;;;;5104989;27;20039;-66
2022/06/24 12:33:48;;;;;;;4.80;2.60;;;;;;;;;;5105436;27;20069;-66
2022/06/24 12:36:16;;;;;;;5.63;2.78;;;;;;;;;;5108086;27;20047;-65
2022/06/24 12:38:46;;;;;;;6.45;2.83;;;;;;;;;;5107357;27;20039;-66
2022/06/24 12:41:14;;;;;;;6.30;2.80;;;;;;;;;;5108537;27;20792;-67
2022/06/24 12:43:54;;;;;;;4.70;2.10;;;;;;;;;;5106513;27;20043;-65
2022/06/24 12:46:21;;;;;;;4.95;2.45;;;;;;;;;;5107112;27;20039;-65
2022/06/24 12:51:39;;;;;;;5.20;2.38;;;;;;;;;;5108067;27;20089;-64
2022/06/24 12:54:06;;;;;;;3.75;1.45;;;;;;;;;;5096452;27;20094;-65
2022/06/24 12:56:34;;;;;;;5.88;2.58;;;;;;;;;;5091151;28;20537;-65
2022/06/24 12:59:02;;;;;;;4.20;2.30;;;;;;;;;;5107494;27;20122;-65
2022/06/24 13:01:28;;;;;;;3.67;1.70;;;;;;;;;;5107416;27;20523;-65
2022/06/24 13:03:55;;;;;;;3.75;1.92;;;;;;;;;;5106308;27;20049;-65
2022/06/24 13:06:22;;;;;;;5.35;2.42;;;;;;;;;;5106682;27;20031;-64
2022/06/24 13:08:49;;;;;;;5.40;2.83;;;;;;;;;;5108308;27;20118;-66
2022/06/24 13:11:15;;;;;;;5.68;2.63;;;;;;;;;;5105828;27;20032;-65
2022/06/24 13:13:42;;;;;;;5.25;2.40;;;;;;;;;;5106905;27;20036;-66
2022/06/24 13:16:09;;;;;;;5.85;2.97;;;;;;;;;;5107492;27;20472;-66
2022/06/24 13:18:35;;;;;;;5.47;3.00;;;;;;;;;;5107316;27;20083;-66
2022/06/24 13:21:02;;;;;;;4.10;2.47;;;;;;;;;;5107187;27;20051;-66
2022/06/24 13:23:29;;;;;;;4.90;2.83;;;;;;;;;;5106690;27;20057;-66
2022/06/24 13:25:55;;;;;;;5.18;2.65;;;;;;;;;;5108328;27;20043;-66
2022/06/24 13:28:22;;;;;;;5.10;2.75;;;;;;;;;;5106537;27;20028;-66
2022/06/24 13:30:48;;;;;;;4.25;1.95;;;;;;;;;;5107156;27;20066;-66
2022/06/24 13:33:15;;;;;;;4.18;1.98;;;;;;;;;;5107194;27;21737;-67
2022/06/24 13:35:42;;;;;;;5.40;3.30;;;;;;;;;;5107565;27;20055;-67
2022/06/24 13:38:09;;;;;;;5.63;3.13;;;;;;;;;;5108976;27;20044;-66
2022/06/24 13:40:36;;;;;;;5.95;3.90;;;;;;;;;;5110447;27;20043;-66
2022/06/24 13:43:03;;;;;;;4.65;2.55;;;;;;;;;;5108332;27;20814;-66
2022/06/24 13:45:29;;;;;;;5.30;2.67;;;;;;;;;;5108146;27;20046;-66
2022/06/24 13:47:57;;;;;;;6.22;3.53;;;;;;;;;;5110255;27;20039;-68
2022/06/24 13:50:24;;;;;;;5.15;2.97;;;;;;;;;;5106774;27;20039;-66
2022/06/24 13:52:50;;;;;;;7.00;2.88;;;;;;;;;;5105476;27;20328;-67
2022/06/24 13:55:17;;;;;;;5.90;2.85;;;;;;;;;;5107400;27;20056;-67
2022/06/24 13:57:44;;;;;;;4.18;2.33;;;;;;;;;;5106690;27;20050;-67
2022/06/24 14:00:11;;;;;;;5.10;2.65;;;;;;;;;;5107529;27;20039;-67
2022/06/24 14:02:37;;;;;;;5.22;2.50;;;;;;;;;;5106862;27;20043;-66
2022/06/24 14:05:04;;;;;;;4.43;2.13;;;;;;;;;;5107041;27;20043;-62
2022/06/24 14:07:31;;;;;;;4.55;2.15;;;;;;;;;;5105634;27;20503;-65
2022/06/24 14:09:58;;;;;;;4.47;2.63;;;;;;;;;;5107271;27;20043;-66
2022/06/24 14:12:24;;;;;;;4.05;1.90;;;;;;;;;;5105951;27;20055;-66
2022/06/24 14:14:51;;;;;;;3.75;1.85;;;;;;;;;;5105400;27;20051;-66
2022/06/24 14:17:18;;;;;;;4.82;2.55;;;;;;;;;;5108049;27;20035;-66
2022/06/24 14:19:44;;;;;;;5.93;2.50;;;;;;;;;;5107090;27;20031;-65
2022/06/24 14:22:11;;;;;;;4.03;1.77;;;;;;;;;;5107332;27;20027;-63
2022/06/24 14:24:38;;;;;;;4.10;2.45;;;;;;;;;;5105788;27;20046;-65
2022/06/24 14:27:09;;;;;;;3.75;2.00;;;;;;;;;;5107124;27;20087;-66
2022/06/24 14:29:36;;;;;;;5.25;2.30;;;;;;;;;;5106302;27;20051;-67
2022/06/24 14:32:03;;;;;;;3.97;1.52;;;;;;;;;;5108240;27;20997;-66
2022/06/24 14:34:33;;;;;;;4.50;2.28;;;;;;;;;;5107173;27;20044;-66
2022/06/24 14:37:01;;;;;;;5.03;2.70;;;;;;;;;;5108438;27;20066;-67
2022/06/24 14:42:13;;;;;;;4.20;2.15;;;;;;;;;;5106929;27;20105;-66
2022/06/24 14:44:39;;;;;;;3.90;2.20;;;;;;;;;;5102956;27;20791;-66
2022/06/24 14:47:07;;;;;;;4.65;2.20;;;;;;;;;;5105742;27;20059;-66
2022/06/24 14:49:35;;;;;;;3.67;1.77;;;;;;;;;;5104245;27;20090;-67
2022/06/24 14:52:01;;;;;;;4.65;2.00;;;;;;;;;;5104695;27;20491;-66
2022/06/24 14:54:28;;;;;;;2.80;1.23;;;;;;;;;;5104442;27;20050;-66
2022/06/24 14:56:55;;;;;;;4.05;1.80;;;;;;;;;;5104747;27;20035;-66
2022/06/24 14:59:22;;;;;;;5.97;1.20;;;;;;;;;;5103875;27;20062;-66
2022/06/24 15:01:49;;;;;;;3.35;1.20;;;;;;;;;;5105209;27;20051;-65
2022/06/24 15:04:15;;;;;;;3.15;1.20;;;;;;;;;;5103571;27;20059;-66
2022/06/24 15:06:42;;;;;;;4.22;1.40;;;;;;;;;;5104198;27;20035;-66